createdAt,value
2022-08-22T00:02:41.709Z,100435.69
2022-08-22T00:02:56.791Z,100455.97
2022-08-22T00:03:03.230Z,100427.00
2022-08-22T00:03:03.863Z,100500.06
2022-08-22T00:03:12.822Z,100502.00
2022-08-22T10:11:33.568Z,100520.09
2022-08-22T10:14:15.428Z,100522.59
2022-08-22T10:17:07.873Z,100519.78
2022-08-22T10:20:13.455Z,100525.59
2022-08-22T10:22:45.161Z,100517.56
2022-08-22T10:25:28.465Z,100512.84
2022-08-22T10:28:10.630Z,100517.59
2022-08-22T10:31:04.997Z,100513.50
2022-08-22T10:33:39.868Z,100517.81
2022-08-22T10:36:35.273Z,100507.63
2022-08-22T10:39:10.902Z,100502.66
2022-08-22T10:42:24.640Z,100503.19
2022-08-22T10:45:08.483Z,100502.88
2022-08-22T10:48:08.627Z,100502.00
2022-08-22T10:50:47.801Z,100491.91
2022-08-22T10:53:33.664Z,100494.91
2022-08-22T10:56:23.349Z,100490.56
2022-08-22T10:58:56.313Z,100487.16
2022-08-22T11:01:41.670Z,100479.50
2022-08-22T11:04:28.243Z,100488.59
2022-08-22T11:07:13.467Z,100485.13
2022-08-22T11:09:43.541Z,100487.06
2022-08-22T11:12:21.222Z,100481.50
2022-08-22T11:15:34.382Z,100479.25
2022-08-22T11:18:16.904Z,100483.97
2022-08-22T11:20:53.308Z,100471.53
2022-08-22T11:23:22.764Z,100475.19
2022-08-22T11:25:56.299Z,100471.34
2022-08-22T11:28:58.173Z,100467.63
2022-08-22T11:32:13.044Z,100475.78
2022-08-22T11:34:44.756Z,100470.31
2022-08-22T11:37:43.316Z,100467.41
2022-08-22T11:40:26.911Z,100465.25
2022-08-22T11:43:26.616Z,100462.25
2022-08-22T11:45:58.119Z,100466.34
2022-08-22T11:48:39.015Z,100474.41
2022-08-22T11:51:24.752Z,100470.63
2022-08-22T11:54:06.681Z,100463.56
2022-08-22T11:56:45.176Z,100460.91
2022-08-22T11:59:30.633Z,100458.66
2022-08-22T12:02:04.899Z,100462.75
2022-08-22T12:04:45.873Z,100464.09
2022-08-22T12:07:17.681Z,100458.59
2022-08-22T12:10:02.523Z,100465.13
2022-08-22T12:12:40.166Z,100454.78
2022-08-22T12:15:33.446Z,100460.09
2022-08-22T12:18:21.697Z,100455.34
2022-08-22T12:21:06.762Z,100457.69
2022-08-22T12:23:49.167Z,100451.72
2022-08-22T12:26:28.278Z,100451.81
2022-08-22T12:29:44.869Z,100448.69
2022-08-22T12:32:44.069Z,100445.44
2022-08-22T12:35:34.956Z,100446.38
2022-08-22T12:38:29.362Z,100446.00
2022-08-22T12:41:12.934Z,100438.09
2022-08-22T12:43:57.907Z,100433.69
2022-08-22T12:46:47.291Z,100429.69
2022-08-22T12:49:27.892Z,100426.50
2022-08-22T12:52:28.640Z,100428.19
2022-08-22T12:55:27.125Z,100423.81
2022-08-22T12:58:42.816Z,100417.84
2022-08-22T13:01:11.402Z,100421.44
2022-08-22T13:03:47.356Z,100416.25
2022-08-22T13:06:35.749Z,100415.47
2022-08-22T13:09:11.795Z,100416.66
2022-08-22T13:11:45.211Z,100412.19
2022-08-22T13:14:13.943Z,100406.53
2022-08-22T13:16:50.994Z,100418.88
2022-08-22T13:19:35.299Z,100408.00
2022-08-22T13:22:11.608Z,100404.34
2022-08-22T13:24:51.723Z,100402.25
2022-08-22T13:27:33.740Z,100399.00
2022-08-22T13:30:07.085Z,100396.41
2022-08-22T13:32:48.074Z,100397.06
2022-08-22T13:35:23.859Z,100389.69
2022-08-22T13:37:57.360Z,100391.22
2022-08-22T13:40:31.708Z,100389.59
2022-08-22T13:43:03.357Z,100396.78
2022-08-22T13:45:32.853Z,100387.97
2022-08-22T13:48:13.038Z,100385.59
2022-08-22T13:51:01.600Z,100386.53
2022-08-22T13:53:48.954Z,100384.53
2022-08-22T13:56:31.866Z,100376.53
2022-08-22T13:59:03.317Z,100383.97
2022-08-22T14:01:59.791Z,100374.63
2022-08-22T14:04:36.806Z,100370.53
2022-08-22T14:07:07.277Z,100380.91
2022-08-22T14:09:54.403Z,100367.38
2022-08-22T14:12:28.769Z,100374.63
2022-08-22T14:15:06.033Z,100368.25
2022-08-22T14:17:44.025Z,100373.09
2022-08-22T14:20:32.581Z,100371.41
2022-08-22T14:23:08.944Z,100366.25
2022-08-22T14:25:39.155Z,100360.22
2022-08-22T14:28:30.997Z,100361.88
2022-08-22T14:31:07.189Z,100361.00
2022-08-22T14:33:39.697Z,100361.00
2022-08-22T14:36:18.966Z,100360.28
2022-08-22T14:39:08.274Z,100363.50
2022-08-22T14:41:55.552Z,100356.34
2022-08-22T14:44:33.470Z,100365.16
2022-08-22T14:47:04.695Z,100361.97
2022-08-22T14:49:57.925Z,100355.94
2022-08-22T14:52:41.481Z,100360.34
2022-08-22T14:55:20.305Z,100361.06
2022-08-22T14:58:03.280Z,100369.84
2022-08-22T15:00:34.334Z,100350.03
2022-08-22T15:03:13.614Z,100353.66
2022-08-22T15:05:48.589Z,100350.81
2022-08-22T15:08:27.408Z,100346.84
2022-08-22T15:11:06.390Z,100349.69
2022-08-22T15:13:36.676Z,100336.38
2022-08-22T15:16:16.139Z,100336.06
2022-08-22T15:18:51.739Z,100336.81
2022-08-22T15:21:24.555Z,100344.34
2022-08-22T15:23:56.506Z,100341.66
2022-08-22T15:26:30.654Z,100334.44
2022-08-22T15:29:25.247Z,100338.59
2022-08-22T15:32:02.963Z,100332.91
2022-08-22T15:34:41.921Z,100332.50
2022-08-22T15:37:17.639Z,100328.06
2022-08-22T15:40:02.986Z,100324.88
2022-08-22T15:42:48.701Z,100326.38
2022-08-22T15:45:38.334Z,100321.69
2022-08-22T15:48:13.487Z,100325.53
2022-08-22T15:50:55.881Z,100319.50
2022-08-22T15:53:30.075Z,100323.09
2022-08-22T15:56:05.077Z,100327.50
2022-08-22T15:58:33.481Z,100333.03
2022-08-22T16:01:22.321Z,100323.50
2022-08-22T16:04:12.849Z,100316.38
2022-08-22T16:06:46.922Z,100311.44
2022-08-22T16:09:32.019Z,100303.09
2022-08-22T16:12:04.246Z,100306.91
2022-08-22T16:14:33.785Z,100308.47
2022-08-22T16:17:27.981Z,100302.00
2022-08-22T16:20:10.020Z,100298.13
2022-08-22T16:22:58.452Z,100308.88
2022-08-22T16:25:47.544Z,100302.44
2022-08-22T16:28:56.432Z,100310.34
2022-08-22T16:31:27.427Z,100310.59
2022-08-22T16:33:57.438Z,100308.38
2022-08-22T16:36:37.821Z,100308.81
2022-08-22T16:39:24.577Z,100313.16
2022-08-22T16:42:23.052Z,100315.06
2022-08-22T16:45:14.906Z,100308.56
2022-08-22T16:47:52.675Z,100306.56
2022-08-22T16:50:35.623Z,100303.31
2022-08-22T16:53:05.694Z,100302.19
2022-08-22T16:55:35.773Z,100295.50
2022-08-22T16:58:21.143Z,100307.22
2022-08-22T17:00:58.070Z,100306.13
2022-08-22T17:03:53.273Z,100302.91
2022-08-22T17:06:28.425Z,100302.53
2022-08-22T17:09:32.342Z,100298.94
2022-08-22T17:12:17.506Z,100307.03
2022-08-22T17:14:54.721Z,100308.16
2022-08-22T17:17:24.106Z,100307.00
2022-08-22T17:20:21.798Z,100318.28
2022-08-22T17:23:08.995Z,100303.50
2022-08-22T17:25:51.899Z,100318.25
2022-08-22T17:28:40.534Z,100312.06
2022-08-22T17:31:46.776Z,100309.66
2022-08-22T17:34:34.831Z,100320.44
2022-08-22T17:37:26.150Z,100323.06
2022-08-22T17:40:09.939Z,100323.03
2022-08-22T17:43:21.569Z,100331.97
2022-08-22T17:46:22.832Z,100332.47
2022-08-22T17:48:53.867Z,100329.34
2022-08-22T17:52:06.514Z,100330.72
2022-08-22T17:54:55.280Z,100329.75
2022-08-22T17:57:35.510Z,100336.00
2022-08-22T18:00:11.307Z,100333.81
2022-08-22T18:02:40.605Z,100345.34
2022-08-22T18:05:17.452Z,100350.34
2022-08-22T18:08:03.024Z,100350.34
2022-08-22T18:10:45.179Z,100350.03
2022-08-22T18:13:14.508Z,100351.97
2022-08-22T18:15:47.260Z,100347.88
2022-08-22T18:18:55.612Z,100360.78
2022-08-22T18:21:32.097Z,100356.44
2022-08-22T18:23:58.493Z,100354.84
2022-08-22T18:26:39.853Z,100355.53
2022-08-22T18:29:16.253Z,100359.03
2022-08-22T18:32:04.069Z,100369.19
2022-08-22T18:34:42.673Z,100372.59
2022-08-22T18:37:17.313Z,100374.44
2022-08-22T18:39:59.845Z,100385.38
2022-08-22T18:42:31.729Z,100385.03
2022-08-22T18:44:58.241Z,100373.66
2022-08-22T18:47:34.562Z,100390.03
2022-08-22T18:50:24.361Z,100386.31
2022-08-22T18:52:53.417Z,100391.34
2022-08-22T18:55:56.241Z,100394.97
2022-08-22T18:58:40.741Z,100394.31
2022-08-22T19:01:41.337Z,100395.41
2022-08-22T19:04:35.218Z,100404.78
2022-08-22T19:07:28.161Z,100402.81
2022-08-22T19:10:09.702Z,100402.75
2022-08-22T19:12:54.924Z,100407.88
2022-08-22T19:15:34.486Z,100415.47
2022-08-22T19:18:28.454Z,100416.94
2022-08-22T19:21:32.255Z,100423.78
2022-08-22T19:23:59.295Z,100424.94
2022-08-22T19:26:30.587Z,100430.47
2022-08-22T19:29:14.332Z,100438.94
2022-08-22T19:31:44.527Z,100448.06
2022-08-22T19:34:35.221Z,100443.69
2022-08-22T19:37:33.314Z,100448.06
2022-08-22T19:40:07.011Z,100452.00
2022-08-22T19:42:36.913Z,100448.44
2022-08-22T19:45:30.672Z,100444.69
2022-08-22T19:48:13.913Z,100445.03
2022-08-22T19:50:42.978Z,100447.69
2022-08-22T19:53:30.993Z,100456.56
2022-08-22T19:56:20.874Z,100449.66
2022-08-22T19:58:59.549Z,100459.69
2022-08-22T20:01:56.237Z,100455.31
2022-08-22T20:04:47.241Z,100469.44
2022-08-22T20:07:25.713Z,100473.03
2022-08-22T20:10:19.771Z,100466.69
2022-08-22T20:12:52.142Z,100461.31
2022-08-22T20:15:22.555Z,100467.00
2022-08-22T20:20:55.350Z,100461.81
2022-08-22T20:23:28.333Z,100458.56
2022-08-22T20:25:57.116Z,100462.13
2022-08-22T20:28:23.598Z,100457.28
2022-08-22T20:30:58.164Z,100459.03
2022-08-22T20:33:29.490Z,100469.09
2022-08-22T20:36:02.419Z,100458.06
2022-08-22T20:38:39.635Z,100463.59
2022-08-22T20:41:22.587Z,100461.34
2022-08-22T20:43:56.797Z,100469.09
2022-08-22T20:46:53.171Z,100462.94
2022-08-22T20:49:26.460Z,100470.06
2022-08-22T20:52:01.821Z,100461.16
2022-08-22T20:54:32.142Z,100455.31
2022-08-22T20:57:13.934Z,100461.97
2022-08-22T20:59:42.713Z,100466.00
2022-08-22T21:02:15.407Z,100462.13
2022-08-22T21:05:02.382Z,100466.81
2022-08-22T21:07:38.151Z,100456.44
2022-08-22T21:10:33.979Z,100470.00
2022-08-22T21:13:03.405Z,100466.56
2022-08-22T21:15:35.610Z,100480.50
2022-08-22T21:18:02.465Z,100475.47
2022-08-22T21:20:33.457Z,100479.34
2022-08-22T21:23:03.241Z,100479.13
2022-08-22T21:25:30.601Z,100480.75
2022-08-22T21:27:57.161Z,100483.63
2022-08-22T21:30:26.852Z,100491.38
2022-08-22T21:32:56.116Z,100487.19
2022-08-22T21:35:28.309Z,100499.50
2022-08-22T21:37:56.746Z,100499.09
2022-08-22T21:40:33.594Z,100494.78
2022-08-22T21:43:07.881Z,100496.84
2022-08-22T21:45:37.353Z,100497.03
2022-08-22T21:48:44.028Z,100491.91
2022-08-22T21:51:40.786Z,100485.41
2022-08-22T21:54:25.728Z,100490.41
2022-08-22T21:56:54.410Z,100494.81
2022-08-22T21:59:52.287Z,100498.56
2022-08-22T22:02:37.908Z,100499.69
2022-08-22T22:05:12.489Z,100496.06
2022-08-22T22:07:42.049Z,100501.41
2022-08-22T22:10:11.911Z,100502.84
2022-08-22T22:12:41.228Z,100503.47
2022-08-22T22:15:09.493Z,100507.97
2022-08-22T22:17:36.042Z,100498.41
2022-08-22T22:20:03.663Z,100508.09
2022-08-22T22:22:30.173Z,100501.28
2022-08-22T22:24:56.751Z,100497.25
2022-08-22T22:27:23.290Z,100504.19
2022-08-22T22:29:49.802Z,100511.13
2022-08-22T22:32:16.318Z,100500.72
2022-08-22T22:34:42.794Z,100505.75
2022-08-22T22:37:11.842Z,100505.06
2022-08-22T22:39:38.882Z,100508.69
2022-08-22T22:42:05.615Z,100509.34
2022-08-22T22:44:32.506Z,100513.84
2022-08-22T22:47:02.188Z,100510.56
2022-08-22T22:49:31.077Z,100505.72
2022-08-22T22:51:59.585Z,100521.38
2022-08-22T22:54:27.139Z,100517.31
2022-08-22T22:56:54.030Z,100520.06
2022-08-22T22:59:24.797Z,100516.50
2022-08-22T23:02:15.273Z,100520.13
2022-08-22T23:04:44.241Z,100516.50
2022-08-22T23:07:12.374Z,100528.94
2022-08-22T23:09:44.792Z,100515.50
2022-08-22T23:12:13.955Z,100523.75
2022-08-22T23:14:40.869Z,100524.06
2022-08-22T23:17:07.484Z,100519.69
2022-08-22T23:19:34.251Z,100522.75
2022-08-22T23:22:01.519Z,100523.56
2022-08-22T23:24:31.142Z,100518.38
2022-08-22T23:26:58.931Z,100512.06
2022-08-22T23:29:26.366Z,100504.94
2022-08-22T23:31:58.313Z,100503.31
2022-08-22T23:34:32.968Z,100508.16
2022-08-22T23:37:01.903Z,100516.56
2022-08-22T23:39:32.873Z,100521.84
2022-08-22T23:42:00.305Z,100524.09
2022-08-22T23:44:31.785Z,100529.78
2022-08-22T23:46:59.628Z,100537.94
2022-08-22T23:49:27.449Z,100538.25
2022-08-22T23:51:54.449Z,100540.50
2022-08-22T23:54:21.403Z,100531.75
2022-08-22T23:56:50.716Z,100530.63
2022-08-22T23:59:20.749Z,100530.63
